sensor_id;sensor_type;location;lat;lon;timestamp;pressure;altitude;pressure_sealevel;temperature;humidity
54262;BME280;40174;52.364;6.452;2023-07-24T00:00:52;100210.53;;;17.73;100.00
54262;BME280;40174;52.364;6.452;2023-07-24T00:03:18;100199.84;;;17.73;100.00
54262;BME280;40174;52.364;6.452;2023-07-24T00:05:45;100205.00;;;17.74;100.00
54262;BME280;40174;52.364;6.452;2023-07-24T00:08:12;100201.78;;;17.79;100.00
54262;BME280;40174;52.364;6.452;2023-07-24T00:10:39;100201.25;;;17.83;100.00
54262;BME280;40174;52.364;6.452;2023-07-24T00:13:07;100194.56;;;17.79;100.00
54262;BME280;40174;52.364;6.452;2023-07-24T00:15:35;100189.97;;;17.73;100.00
54262;BME280;40174;52.364;6.452;2023-07-24T00:18:02;100202.34;;;17.74;100.00
54262;BME280;40174;52.364;6.452;2023-07-24T00:20:28;100199.47;;;17.76;100.00
54262;BME280;40174;52.364;6.452;2023-07-24T00:22:55;100188.06;;;17.67;100.00
54262;BME280;40174;52.364;6.452;2023-07-24T00:25:21;100194.50;;;17.73;100.00
54262;BME280;40174;52.364;6.452;2023-07-24T00:27:48;100190.53;;;17.69;100.00
54262;BME280;40174;52.364;6.452;2023-07-24T00:30:15;100185.66;;;17.72;100.00
54262;BME280;40174;52.364;6.452;2023-07-24T00:32:44;100180.47;;;17.71;100.00
54262;BME280;40174;52.364;6.452;2023-07-24T00:35:10;100178.56;;;17.64;100.00
54262;BME280;40174;52.364;6.452;2023-07-24T00:37:37;100183.53;;;17.67;100.00
54262;BME280;40174;52.364;6.452;2023-07-24T00:40:05;100174.06;;;17.65;100.00
54262;BME280;40174;52.364;6.452;2023-07-24T00:42:32;100172.03;;;17.67;100.00
54262;BME280;40174;52.364;6.452;2023-07-24T00:45:17;100172.03;;;17.67;100.00
54262;BME280;40174;52.364;6.452;2023-07-24T00:47:45;100171.66;;;17.70;100.00
54262;BME280;40174;52.364;6.452;2023-07-24T00:50:12;100171.00;;;17.68;100.00
54262;BME280;40174;52.364;6.452;2023-07-24T00:52:40;100172.47;;;17.71;100.00
54262;BME280;40174;52.364;6.452;2023-07-24T00:55:09;100164.00;;;17.67;100.00
54262;BME280;40174;52.364;6.452;2023-07-24T00:57:35;100158.66;;;17.67;100.00
54262;BME280;40174;52.364;6.452;2023-07-24T01:00:05;100157.81;;;17.66;100.00
54262;BME280;40174;52.364;6.452;2023-07-24T01:02:35;100158.03;;;17.65;100.00
54262;BME280;40174;52.364;6.452;2023-07-24T01:05:05;100154.53;;;17.64;100.00
54262;BME280;40174;52.364;6.452;2023-07-24T01:07:32;100147.50;;;17.63;100.00
54262;BME280;40174;52.364;6.452;2023-07-24T01:09:59;100141.69;;;17.60;100.00
54262;BME280;40174;52.364;6.452;2023-07-24T01:12:31;100130.38;;;17.58;100.00
54262;BME280;40174;52.364;6.452;2023-07-24T01:15:08;100125.88;;;17.58;100.00
54262;BME280;40174;52.364;6.452;2023-07-24T01:17:40;100127.97;;;17.63;100.00
54262;BME280;40174;52.364;6.452;2023-07-24T01:20:11;100122.16;;;17.59;100.00
54262;BME280;40174;52.364;6.452;2023-07-24T01:22:48;100123.09;;;17.52;100.00
54262;BME280;40174;52.364;6.452;2023-07-24T01:25:27;100116.56;;;17.54;100.00
54262;BME280;40174;52.364;6.452;2023-07-24T01:27:57;100117.28;;;17.48;100.00
54262;BME280;40174;52.364;6.452;2023-07-24T01:30:24;100112.50;;;17.43;100.00
54262;BME280;40174;52.364;6.452;2023-07-24T01:33:10;100106.09;;;17.38;100.00
54262;BME280;40174;52.364;6.452;2023-07-24T01:35:38;100110.69;;;17.29;100.00
54262;BME280;40174;52.364;6.452;2023-07-24T01:38:05;100109.88;;;17.29;100.00
54262;BME280;40174;52.364;6.452;2023-07-24T01:40:31;100102.03;;;17.27;100.00
54262;BME280;40174;52.364;6.452;2023-07-24T01:43:00;100105.53;;;17.28;100.00
54262;BME280;40174;52.364;6.452;2023-07-24T01:45:26;100105.69;;;17.26;100.00
54262;BME280;40174;52.364;6.452;2023-07-24T01:47:53;100109.22;;;17.27;100.00
54262;BME280;40174;52.364;6.452;2023-07-24T01:50:20;100105.25;;;17.22;100.00
54262;BME280;40174;52.364;6.452;2023-07-24T01:52:46;100101.56;;;17.23;100.00
54262;BME280;40174;52.364;6.452;2023-07-24T01:55:13;100096.22;;;17.23;100.00
54262;BME280;40174;52.364;6.452;2023-07-24T01:58:00;100100.25;;;17.19;100.00
54262;BME280;40174;52.364;6.452;2023-07-24T02:00:27;100093.09;;;17.20;100.00
54262;BME280;40174;52.364;6.452;2023-07-24T02:02:56;100084.63;;;17.16;100.00
54262;BME280;40174;52.364;6.452;2023-07-24T02:05:23;100082.31;;;17.13;100.00
54262;BME280;40174;52.364;6.452;2023-07-24T02:07:50;100078.19;;;17.11;100.00
54262;BME280;40174;52.364;6.452;2023-07-24T02:10:17;100087.03;;;17.11;100.00
54262;BME280;40174;52.364;6.452;2023-07-24T02:12:44;100086.38;;;17.09;100.00
54262;BME280;40174;52.364;6.452;2023-07-24T02:15:12;100083.53;;;17.11;100.00
54262;BME280;40174;52.364;6.452;2023-07-24T02:17:39;100085.00;;;17.13;100.00
54262;BME280;40174;52.364;6.452;2023-07-24T02:20:08;100079.00;;;17.11;100.00
54262;BME280;40174;52.364;6.452;2023-07-24T02:22:34;100076.13;;;17.13;100.00
54262;BME280;40174;52.364;6.452;2023-07-24T02:25:05;100077.16;;;17.12;100.00
54262;BME280;40174;52.364;6.452;2023-07-24T02:27:32;100078.25;;;17.17;100.00
54262;BME280;40174;52.364;6.452;2023-07-24T02:29:59;100066.31;;;17.13;100.00
54262;BME280;40174;52.364;6.452;2023-07-24T02:32:27;100072.66;;;17.12;100.00
54262;BME280;40174;52.364;6.452;2023-07-24T02:34:54;100071.00;;;17.11;100.00
54262;BME280;40174;52.364;6.452;2023-07-24T02:37:21;100071.81;;;17.12;100.00
54262;BME280;40174;52.364;6.452;2023-07-24T02:39:47;100072.00;;;17.10;100.00
54262;BME280;40174;52.364;6.452;2023-07-24T02:42:14;100068.34;;;17.11;100.00
54262;BME280;40174;52.364;6.452;2023-07-24T02:44:41;100068.50;;;17.10;100.00
54262;BME280;40174;52.364;6.452;2023-07-24T02:47:08;100054.34;;;17.09;100.00
54262;BME280;40174;52.364;6.452;2023-07-24T02:49:36;100055.53;;;17.07;100.00
54262;BME280;40174;52.364;6.452;2023-07-24T02:52:03;100069.06;;;17.05;100.00
54262;BME280;40174;52.364;6.452;2023-07-24T02:54:30;100074.41;;;17.05;100.00
54262;BME280;40174;52.364;6.452;2023-07-24T02:56:56;100075.44;;;17.04;100.00
54262;BME280;40174;52.364;6.452;2023-07-24T02:59:23;100068.41;;;17.03;100.00
54262;BME280;40174;52.364;6.452;2023-07-24T03:01:50;100070.44;;;17.01;100.00
54262;BME280;40174;52.364;6.452;2023-07-24T03:04:17;100062.44;;;17.01;100.00
54262;BME280;40174;52.364;6.452;2023-07-24T03:06:45;100057.47;;;16.98;100.00
54262;BME280;40174;52.364;6.452;2023-07-24T03:09:12;100064.44;;;16.99;100.00
54262;BME280;40174;52.364;6.452;2023-07-24T03:11:38;100069.78;;;16.99;100.00
54262;BME280;40174;52.364;6.452;2023-07-24T03:14:05;100062.44;;;17.01;100.00
54262;BME280;40174;52.364;6.452;2023-07-24T03:16:32;100062.25;;;17.02;100.00
54262;BME280;40174;52.364;6.452;2023-07-24T03:18:58;100061.22;;;17.03;100.00
54262;BME280;40174;52.364;6.452;2023-07-24T03:21:25;100060.22;;;17.04;100.00
54262;BME280;40174;52.364;6.452;2023-07-24T03:23:53;100053.03;;;17.05;100.00
54262;BME280;40174;52.364;6.452;2023-07-24T03:26:20;100050.53;;;17.03;100.00
54262;BME280;40174;52.364;6.452;2023-07-24T03:28:46;100049.72;;;17.03;100.00
54262;BME280;40174;52.364;6.452;2023-07-24T03:31:31;100046.22;;;17.02;100.00
54262;BME280;40174;52.364;6.452;2023-07-24T03:34:17;100047.88;;;17.03;100.00
54262;BME280;40174;52.364;6.452;2023-07-24T03:36:44;100036.56;;;17.01;100.00
54262;BME280;40174;52.364;6.452;2023-07-24T03:39:12;100031.03;;;17.03;100.00
54262;BME280;40174;52.364;6.452;2023-07-24T03:41:39;100029.41;;;17.02;100.00
54262;BME280;40174;52.364;6.452;2023-07-24T03:44:05;100034.53;;;17.03;100.00
54262;BME280;40174;52.364;6.452;2023-07-24T03:46:53;100032.72;;;17.04;100.00
54262;BME280;40174;52.364;6.452;2023-07-24T03:49:22;100036.38;;;17.03;100.00
54262;BME280;40174;52.364;6.452;2023-07-24T03:51:49;100032.72;;;17.04;100.00
54262;BME280;40174;52.364;6.452;2023-07-24T03:54:17;100024.06;;;17.02;100.00
54262;BME280;40174;52.364;6.452;2023-07-24T03:56:43;100020.38;;;17.03;100.00
54262;BME280;40174;52.364;6.452;2023-07-24T03:59:10;100027.56;;;17.02;100.00
54262;BME280;40174;52.364;6.452;2023-07-24T04:01:37;100024.41;;;16.99;100.00
54262;BME280;40174;52.364;6.452;2023-07-24T04:04:04;100031.41;;;17.00;100.00
54262;BME280;40174;52.364;6.452;2023-07-24T04:06:30;100029.56;;;17.00;100.00
54262;BME280;40174;52.364;6.452;2023-07-24T04:08:57;100019.72;;;17.01;100.00
54262;BME280;40174;52.364;6.452;2023-07-24T04:11:25;100028.53;;;17.01;100.00
54262;BME280;40174;52.364;6.452;2023-07-24T04:13:52;100019.88;;;16.99;100.00
54262;BME280;40174;52.364;6.452;2023-07-24T04:16:18;100011.44;;;16.96;100.00
54262;BME280;40174;52.364;6.452;2023-07-24T04:19:04;100019.88;;;16.99;100.00
54262;BME280;40174;52.364;6.452;2023-07-24T04:21:31;100014.94;;;16.96;100.00
54262;BME280;40174;52.364;6.452;2023-07-24T04:23:57;100026.44;;;16.97;100.00
54262;BME280;40174;52.364;6.452;2023-07-24T04:26:25;100019.84;;;16.93;100.00
54262;BME280;40174;52.364;6.452;2023-07-24T04:28:52;100006.66;;;16.91;100.00
54262;BME280;40174;52.364;6.452;2023-07-24T04:31:18;100008.31;;;16.92;100.00
54262;BME280;40174;52.364;6.452;2023-07-24T04:33:45;100012.00;;;16.91;100.00
54262;BME280;40174;52.364;6.452;2023-07-24T04:36:12;100020.19;;;16.90;100.00
54262;BME280;40174;52.364;6.452;2023-07-24T04:38:38;100010.53;;;16.89;100.00
54262;BME280;40174;52.364;6.452;2023-07-24T04:41:05;100012.16;;;16.90;100.00
54262;BME280;40174;52.364;6.452;2023-07-24T04:43:33;100003.16;;;16.91;100.00
54262;BME280;40174;52.364;6.452;2023-07-24T04:46:00;100009.50;;;16.90;100.00
54262;BME280;40174;52.364;6.452;2023-07-24T04:48:27;100010.53;;;16.89;100.00
54262;BME280;40174;52.364;6.452;2023-07-24T04:50:54;100004.34;;;16.88;100.00
54262;BME280;40174;52.364;6.452;2023-07-24T04:53:21;100018.16;;;16.92;100.00
54262;BME280;40174;52.364;6.452;2023-07-24T04:55:48;100013.00;;;16.90;100.00
54262;BME280;40174;52.364;6.452;2023-07-24T04:58:15;100021.00;;;16.90;100.00
54262;BME280;40174;52.364;6.452;2023-07-24T05:00:43;100017.50;;;16.90;100.00
54262;BME280;40174;52.364;6.452;2023-07-24T05:03:10;100018.72;;;16.87;100.00
54262;BME280;40174;52.364;6.452;2023-07-24T05:05:37;100012.34;;;16.88;100.00
54262;BME280;40174;52.364;6.452;2023-07-24T05:08:04;99999.00;;;16.88;100.00
54262;BME280;40174;52.364;6.452;2023-07-24T05:10:34;99997.53;;;16.86;100.00
54262;BME280;40174;52.364;6.452;2023-07-24T05:13:01;99990.56;;;16.85;100.00
54262;BME280;40174;52.364;6.452;2023-07-24T05:15:28;100004.34;;;16.88;100.00
54262;BME280;40174;52.364;6.452;2023-07-24T05:17:56;99996.53;;;16.87;100.00
54262;BME280;40174;52.364;6.452;2023-07-24T05:20:22;100001.88;;;16.87;100.00
54262;BME280;40174;52.364;6.452;2023-07-24T05:22:49;100011.72;;;16.86;100.00
54262;BME280;40174;52.364;6.452;2023-07-24T05:25:16;100015.88;;;16.89;100.00
54262;BME280;40174;52.364;6.452;2023-07-24T05:27:42;100019.19;;;16.91;100.00
54262;BME280;40174;52.364;6.452;2023-07-24T05:30:10;100011.81;;;16.93;100.00
54262;BME280;40174;52.364;6.452;2023-07-24T05:32:36;100009.97;;;16.93;100.00
54262;BME280;40174;52.364;6.452;2023-07-24T05:35:05;100008.59;;;16.97;100.00
54262;BME280;40174;52.364;6.452;2023-07-24T05:37:32;100008.22;;;17.00;100.00
54262;BME280;40174;52.364;6.452;2023-07-24T05:39:58;100017.50;;;17.04;100.00
54262;BME280;40174;52.364;6.452;2023-07-24T05:42:25;100010.31;;;17.05;100.00
54262;BME280;40174;52.364;6.452;2023-07-24T05:44:52;100010.81;;;17.09;100.00
54262;BME280;40174;52.364;6.452;2023-07-24T05:47:19;100024.03;;;17.17;100.00
54262;BME280;40174;52.364;6.452;2023-07-24T05:49:45;100020.91;;;17.13;100.00
54262;BME280;40174;52.364;6.452;2023-07-24T05:52:13;100018.59;;;17.10;100.00
54262;BME280;40174;52.364;6.452;2023-07-24T05:54:59;100016.78;;;17.11;100.00
54262;BME280;40174;52.364;6.452;2023-07-24T05:57:25;100014.13;;;17.11;100.00
54262;BME280;40174;52.364;6.452;2023-07-24T05:59:52;100021.75;;;17.14;100.00
54262;BME280;40174;52.364;6.452;2023-07-24T06:02:19;100022.38;;;17.16;100.00
54262;BME280;40174;52.364;6.452;2023-07-24T06:04:45;100026.25;;;17.13;100.00
54262;BME280;40174;52.364;6.452;2023-07-24T06:07:14;100030.56;;;17.14;100.00
54262;BME280;40174;52.364;6.452;2023-07-24T06:09:40;100034.72;;;17.17;100.00
54262;BME280;40174;52.364;6.452;2023-07-24T06:12:07;100023.03;;;17.18;100.00
54262;BME280;40174;52.364;6.452;2023-07-24T06:14:34;100041.44;;;17.28;100.00
54262;BME280;40174;52.364;6.452;2023-07-24T06:17:01;100037.28;;;17.25;100.00
54262;BME280;40174;52.364;6.452;2023-07-24T06:19:27;100034.88;;;17.30;100.00
54262;BME280;40174;52.364;6.452;2023-07-24T06:21:54;100031.84;;;17.33;100.00
54262;BME280;40174;52.364;6.452;2023-07-24T06:24:22;100031.84;;;17.33;100.00
54262;BME280;40174;52.364;6.452;2023-07-24T06:26:49;100033.13;;;17.37;100.00
54262;BME280;40174;52.364;6.452;2023-07-24T06:29:16;100028.06;;;17.42;100.00
54262;BME280;40174;52.364;6.452;2023-07-24T06:31:43;100020.47;;;17.46;100.00
54262;BME280;40174;52.364;6.452;2023-07-24T06:34:09;100024.38;;;17.43;100.00
54262;BME280;40174;52.364;6.452;2023-07-24T06:36:36;100031.63;;;17.50;100.00
54262;BME280;40174;52.364;6.452;2023-07-24T06:39:03;100022.03;;;17.55;100.00
54262;BME280;40174;52.364;6.452;2023-07-24T06:41:31;100017.72;;;17.54;100.00
54262;BME280;40174;52.364;6.452;2023-07-24T06:43:58;100026.63;;;17.61;100.00
54262;BME280;40174;52.364;6.452;2023-07-24T06:46:25;100034.06;;;17.66;100.00
54262;BME280;40174;52.364;6.452;2023-07-24T06:48:51;100039.63;;;17.64;100.00
54262;BME280;40174;52.364;6.452;2023-07-24T06:51:18;100035.09;;;17.65;100.00
54262;BME280;40174;52.364;6.452;2023-07-24T06:53:45;100039.63;;;17.64;100.00
54262;BME280;40174;52.364;6.452;2023-07-24T06:56:11;100033.72;;;17.69;100.00
54262;BME280;40174;52.364;6.452;2023-07-24T06:58:40;100036.38;;;17.69;100.00
54262;BME280;40174;52.364;6.452;2023-07-24T07:01:07;100037.28;;;17.76;100.00
54262;BME280;40174;52.364;6.452;2023-07-24T07:03:33;100040.69;;;17.85;100.00
54262;BME280;40174;52.364;6.452;2023-07-24T07:06:01;100044.72;;;17.81;100.00
54262;BME280;40174;52.364;6.452;2023-07-24T07:08:29;100049.78;;;17.91;100.00
54262;BME280;40174;52.364;6.452;2023-07-24T07:10:56;100043.78;;;17.89;100.00
54262;BME280;40174;52.364;6.452;2023-07-24T07:13:23;100039.63;;;18.01;100.00
54262;BME280;40174;52.364;6.452;2023-07-24T07:15:54;100039.22;;;18.04;100.00
54262;BME280;40174;52.364;6.452;2023-07-24T07:18:21;100046.03;;;18.06;100.00
54262;BME280;40174;52.364;6.452;2023-07-24T07:20:48;100039.47;;;18.09;100.00
54262;BME280;40174;52.364;6.452;2023-07-24T07:23:15;100045.84;;;18.08;100.00
54262;BME280;40174;52.364;6.452;2023-07-24T07:25:43;100036.81;;;18.09;100.00
54262;BME280;40174;52.364;6.452;2023-07-24T07:28:10;100041.63;;;18.20;100.00
54262;BME280;40174;52.364;6.452;2023-07-24T07:30:37;100035.69;;;18.25;100.00
54262;BME280;40174;52.364;6.452;2023-07-24T07:33:05;100036.16;;;18.28;100.00
54262;BME280;40174;52.364;6.452;2023-07-24T07:35:31;100039.13;;;18.40;100.00
54262;BME280;40174;52.364;6.452;2023-07-24T07:37:59;100035.16;;;18.58;100.00
54262;BME280;40174;52.364;6.452;2023-07-24T07:40:26;100034.19;;;18.65;100.00
54262;BME280;40174;52.364;6.452;2023-07-24T07:42:54;100038.38;;;18.75;100.00
54262;BME280;40174;52.364;6.452;2023-07-24T07:45:21;100027.00;;;18.66;100.00
54262;BME280;40174;52.364;6.452;2023-07-24T07:47:48;100035.06;;;18.73;100.00
54262;BME280;40174;52.364;6.452;2023-07-24T07:50:16;100029.06;;;18.70;100.00
54262;BME280;40174;52.364;6.452;2023-07-24T07:52:42;100030.09;;;18.69;100.00
54262;BME280;40174;52.364;6.452;2023-07-24T07:55:09;100024.09;;;18.67;100.00
54262;BME280;40174;52.364;6.452;2023-07-24T07:57:37;100028.13;;;18.78;100.00
54262;BME280;40174;52.364;6.452;2023-07-24T08:00:05;100027.00;;;19.01;100.00
54262;BME280;40174;52.364;6.452;2023-07-24T08:02:32;100030.59;;;19.15;100.00
54262;BME280;40174;52.364;6.452;2023-07-24T08:04:59;100027.13;;;19.21;100.00
54262;BME280;40174;52.364;6.452;2023-07-24T08:07:28;100029.22;;;19.32;100.00
54262;BME280;40174;52.364;6.452;2023-07-24T08:09:54;100036.84;;;19.28;100.00
54262;BME280;40174;52.364;6.452;2023-07-24T08:12:21;100034.16;;;19.22;100.00
54262;BME280;40174;52.364;6.452;2023-07-24T08:14:48;100028.13;;;19.13;100.00
54262;BME280;40174;52.364;6.452;2023-07-24T08:17:14;100014.94;;;19.18;100.00
54262;BME280;40174;52.364;6.452;2023-07-24T08:19:41;100024.38;;;19.07;100.00
54262;BME280;40174;52.364;6.452;2023-07-24T08:22:08;100018.81;;;19.09;100.00
54262;BME280;40174;52.364;6.452;2023-07-24T08:24:36;100019.00;;;19.07;100.00
54262;BME280;40174;52.364;6.452;2023-07-24T08:27:04;100017.22;;;19.21;100.00
54262;BME280;40174;52.364;6.452;2023-07-24T08:29:30;100021.97;;;19.26;100.00
54262;BME280;40174;52.364;6.452;2023-07-24T08:31:58;100021.41;;;19.30;100.00
54262;BME280;40174;52.364;6.452;2023-07-24T08:34:25;100023.50;;;19.42;100.00
54262;BME280;40174;52.364;6.452;2023-07-24T08:36:52;100020.69;;;19.63;100.00
54262;BME280;40174;52.364;6.452;2023-07-24T08:39:18;100013.94;;;19.74;100.00
54262;BME280;40174;52.364;6.452;2023-07-24T08:42:09;100023.03;;;19.73;100.00
54262;BME280;40174;52.364;6.452;2023-07-24T08:44:37;100030.66;;;19.83;100.00
54262;BME280;40174;52.364;6.452;2023-07-24T08:47:05;100018.09;;;19.83;100.00
54262;BME280;40174;52.364;6.452;2023-07-24T08:49:34;100013.34;;;19.85;100.00
54262;BME280;40174;52.364;6.452;2023-07-24T08:52:02;100011.25;;;19.74;100.00
54262;BME280;40174;52.364;6.452;2023-07-24T08:54:30;100026.72;;;19.79;100.00
54262;BME280;40174;52.364;6.452;2023-07-24T08:56:57;100022.19;;;19.72;100.00
54262;BME280;40174;52.364;6.452;2023-07-24T08:59:25;100016.75;;;19.66;100.00
54262;BME280;40174;52.364;6.452;2023-07-24T09:01:52;100020.53;;;19.71;100.00
54262;BME280;40174;52.364;6.452;2023-07-24T09:04:19;100019.09;;;19.76;100.00
54262;BME280;40174;52.364;6.452;2023-07-24T09:06:45;100011.06;;;19.76;100.00
54262;BME280;40174;52.364;6.452;2023-07-24T09:09:12;100008.81;;;19.92;100.00
54262;BME280;40174;52.364;6.452;2023-07-24T09:11:46;100004.28;;;20.06;100.00
54262;BME280;40174;52.364;6.452;2023-07-24T09:14:20;100003.03;;;20.22;100.00
54262;BME280;40174;52.364;6.452;2023-07-24T09:16:48;100004.53;;;20.31;100.00
54262;BME280;40174;52.364;6.452;2023-07-24T09:19:18;100010.91;;;20.30;100.00
54262;BME280;40174;52.364;6.452;2023-07-24T09:21:45;100004.28;;;20.26;100.00
54262;BME280;40174;52.364;6.452;2023-07-24T09:24:13;100002.44;;;20.33;100.00
54262;BME280;40174;52.364;6.452;2023-07-24T09:26:47;99996.22;;;20.46;100.00
54262;BME280;40174;52.364;6.452;2023-07-24T09:29:14;99997.66;;;20.55;100.00
54262;BME280;40174;52.364;6.452;2023-07-24T09:31:41;99997.66;;;20.49;100.00
54262;BME280;40174;52.364;6.452;2023-07-24T09:34:16;99999.16;;;20.38;100.00
54262;BME280;40174;52.364;6.452;2023-07-24T09:36:42;99996.25;;;20.40;100.00
54262;BME280;40174;52.364;6.452;2023-07-24T09:39:09;99990.03;;;20.46;100.00
54262;BME280;40174;52.364;6.452;2023-07-24T09:41:37;99996.84;;;20.68;100.00
54262;BME280;40174;52.364;6.452;2023-07-24T09:44:04;100000.19;;;20.57;100.00
54262;BME280;40174;52.364;6.452;2023-07-24T09:46:31;100005.09;;;20.53;100.00
54262;BME280;40174;52.364;6.452;2023-07-24T09:48:58;100004.88;;;20.82;100.00
54262;BME280;40174;52.364;6.452;2023-07-24T09:51:29;99997.44;;;20.84;100.00
54262;BME280;40174;52.364;6.452;2023-07-24T09:54:00;99995.09;;;21.07;100.00
54262;BME280;40174;52.364;6.452;2023-07-24T09:56:29;99997.09;;;21.25;100.00
54262;BME280;40174;52.364;6.452;2023-07-24T09:58:57;99998.69;;;21.46;100.00
54262;BME280;40174;52.364;6.452;2023-07-24T10:01:44;99994.63;;;21.69;100.00
54262;BME280;40174;52.364;6.452;2023-07-24T10:04:11;99991.72;;;21.70;100.00
54262;BME280;40174;52.364;6.452;2023-07-24T10:06:39;99990.19;;;21.81;100.00
54262;BME280;40174;52.364;6.452;2023-07-24T10:09:07;99986.81;;;21.92;100.00
54262;BME280;40174;52.364;6.452;2023-07-24T10:11:35;99979.28;;;22.01;100.00
54262;BME280;40174;52.364;6.452;2023-07-24T10:14:02;99988.47;;;22.18;99.62
54262;BME280;40174;52.364;6.452;2023-07-24T10:16:29;99965.44;;;22.04;98.66
54262;BME280;40174;52.364;6.452;2023-07-24T10:18:55;99968.13;;;22.04;99.63
54262;BME280;40174;52.364;6.452;2023-07-24T10:21:26;99963.50;;;22.11;98.80
54262;BME280;40174;52.364;6.452;2023-07-24T10:23:59;99965.16;;;22.37;97.81
54262;BME280;40174;52.364;6.452;2023-07-24T10:26:26;99959.28;;;22.66;100.00
54262;BME280;40174;52.364;6.452;2023-07-24T10:28:53;99962.97;;;22.71;97.11
54262;BME280;40174;52.364;6.452;2023-07-24T10:31:21;99957.31;;;22.54;98.17
54262;BME280;40174;52.364;6.452;2023-07-24T10:33:49;99956.94;;;22.51;97.27
54262;BME280;40174;52.364;6.452;2023-07-24T10:36:17;99946.03;;;22.46;100.00
54262;BME280;40174;52.364;6.452;2023-07-24T10:38:45;99943.34;;;22.46;100.00
54262;BME280;40174;52.364;6.452;2023-07-24T10:41:14;99949.28;;;22.29;97.69
54262;BME280;40174;52.364;6.452;2023-07-24T10:43:42;99945.88;;;22.15;100.00
54262;BME280;40174;52.364;6.452;2023-07-24T10:46:09;99941.53;;;22.14;100.00
54262;BME280;40174;52.364;6.452;2023-07-24T10:48:36;99947.50;;;22.16;100.00
54262;BME280;40174;52.364;6.452;2023-07-24T10:51:06;99948.38;;;22.10;100.00
54262;BME280;40174;52.364;6.452;2023-07-24T10:53:35;99939.75;;;22.01;98.12
54262;BME280;40174;52.364;6.452;2023-07-24T10:56:02;99939.56;;;22.03;100.00
54262;BME280;40174;52.364;6.452;2023-07-24T10:58:30;99928.78;;;22.03;98.97
54262;BME280;40174;52.364;6.452;2023-07-24T11:00:58;99945.63;;;22.17;99.49
54262;BME280;40174;52.364;6.452;2023-07-24T11:03:25;99948.94;;;22.19;99.94
54262;BME280;40174;52.364;6.452;2023-07-24T11:05:52;99949.13;;;22.24;94.52
54262;BME280;40174;52.364;6.452;2023-07-24T11:08:20;99939.69;;;22.08;94.39
54262;BME280;40174;52.364;6.452;2023-07-24T11:10:48;99941.47;;;21.96;96.55
54262;BME280;40174;52.364;6.452;2023-07-24T11:13:16;99940.25;;;21.92;95.33
54262;BME280;40174;52.364;6.452;2023-07-24T11:15:44;99941.31;;;21.91;90.57
54262;BME280;40174;52.364;6.452;2023-07-24T11:18:11;99947.16;;;21.81;90.33
54262;BME280;40174;52.364;6.452;2023-07-24T11:20:42;99949.75;;;21.69;92.04
54262;BME280;40174;52.364;6.452;2023-07-24T11:23:10;99958.00;;;21.68;93.65
54262;BME280;40174;52.364;6.452;2023-07-24T11:25:37;99961.19;;;21.58;91.63
54262;BME280;40174;52.364;6.452;2023-07-24T11:28:04;99958.94;;;21.55;93.90
54262;BME280;40174;52.364;6.452;2023-07-24T11:30:31;99955.38;;;21.61;95.41
54262;BME280;40174;52.364;6.452;2023-07-24T11:33:00;99967.94;;;21.67;92.72
54262;BME280;40174;52.364;6.452;2023-07-24T11:35:28;99970.69;;;21.61;94.50
54262;BME280;40174;52.364;6.452;2023-07-24T11:37:55;99969.88;;;21.60;93.29
54262;BME280;40174;52.364;6.452;2023-07-24T11:40:30;99973.16;;;21.62;94.18
54262;BME280;40174;52.364;6.452;2023-07-24T11:42:57;99990.13;;;21.63;94.13
54262;BME280;40174;52.364;6.452;2023-07-24T11:45:24;99997.38;;;21.62;94.82
54262;BME280;40174;52.364;6.452;2023-07-24T11:47:51;99986.41;;;21.64;96.47
54262;BME280;40174;52.364;6.452;2023-07-24T11:50:20;99979.16;;;21.64;94.51
54262;BME280;40174;52.364;6.452;2023-07-24T11:52:49;99972.56;;;21.60;94.51
54262;BME280;40174;52.364;6.452;2023-07-24T11:55:18;99955.81;;;21.58;94.03
54262;BME280;40174;52.364;6.452;2023-07-24T11:57:55;99961.59;;;21.62;92.25
54262;BME280;40174;52.364;6.452;2023-07-24T12:00:22;99953.69;;;21.67;91.53
54262;BME280;40174;52.364;6.452;2023-07-24T12:02:50;99960.44;;;21.76;88.63
54262;BME280;40174;52.364;6.452;2023-07-24T12:05:17;99945.75;;;21.78;89.36
54262;BME280;40174;52.364;6.452;2023-07-24T12:07:45;99950.69;;;21.82;91.15
54262;BME280;40174;52.364;6.452;2023-07-24T12:10:13;99961.38;;;21.88;93.10
54262;BME280;40174;52.364;6.452;2023-07-24T12:12:59;99956.41;;;21.92;90.15
54262;BME280;40174;52.364;6.452;2023-07-24T12:15:26;99956.56;;;21.97;90.38
54262;BME280;40174;52.364;6.452;2023-07-24T12:17:52;99944.94;;;22.03;89.87
54262;BME280;40174;52.364;6.452;2023-07-24T12:20:19;99935.94;;;22.16;89.53
54262;BME280;40174;52.364;6.452;2023-07-24T12:22:47;99940.84;;;22.19;90.70
54262;BME280;40174;52.364;6.452;2023-07-24T12:25:14;99935.72;;;22.17;87.38
54262;BME280;40174;52.364;6.452;2023-07-24T12:27:41;99937.53;;;22.24;88.57
54262;BME280;40174;52.364;6.452;2023-07-24T12:30:08;99938.94;;;22.26;87.91
54262;BME280;40174;52.364;6.452;2023-07-24T12:32:35;99946.88;;;22.65;89.15
54262;BME280;40174;52.364;6.452;2023-07-24T12:35:02;99925.16;;;23.15;85.58
54262;BME280;40174;52.364;6.452;2023-07-24T12:37:29;99934.91;;;23.58;83.27
54262;BME280;40174;52.364;6.452;2023-07-24T12:39:57;99944.50;;;23.84;83.23
54262;BME280;40174;52.364;6.452;2023-07-24T12:42:23;99931.53;;;23.62;81.40
54262;BME280;40174;52.364;6.452;2023-07-24T12:44:51;99945.72;;;23.28;82.83
54262;BME280;40174;52.364;6.452;2023-07-24T12:47:17;99938.13;;;23.06;84.46
54262;BME280;40174;52.364;6.452;2023-07-24T12:49:44;99942.69;;;23.06;85.33